Time;durP1;ratioP1;P1;durP2;ratioP2;P2;SDS_P1;SDS_P2;PMS_P1;PMS_P2;Temp;Humidity;BMP_temperature;BMP_pressure;BME280_temperature;BME280_humidity;BME280_pressure;Samples;Min_cycle;Max_cycle;Signal;HPM_P1;HPM_P2
2024/01/31 00:00:07;;;;;;;23.77;14.95;;;19.00;74.60;;;;;;5051230;28;20029;-65
2024/01/31 00:02:33;;;;;;;25.20;14.68;;;18.90;74.70;;;;;;5053107;28;20646;-68
2024/01/31 00:04:58;;;;;;;21.52;14.38;;;18.90;74.70;;;;;;5053639;28;20035;-67
2024/01/31 00:07:24;;;;;;;21.65;14.10;;;19.00;74.80;;;;;;5053409;28;20598;-67
2024/01/31 00:09:50;;;;;;;21.17;13.35;;;19.00;74.60;;;;;;5053221;28;20032;-66
2024/01/31 00:12:16;;;;;;;24.92;13.35;;;19.00;74.50;;;;;;5052610;28;20025;-69
2024/01/31 00:14:45;;;;;;;19.70;13.05;;;19.00;74.50;;;;;;5051852;28;20025;-69
2024/01/31 00:17:11;;;;;;;25.23;13.40;;;19.00;74.80;;;;;;5051514;28;20017;-67
2024/01/31 00:19:36;;;;;;;19.27;12.32;;;19.10;74.70;;;;;;5052788;28;20044;-66
2024/01/31 00:22:02;;;;;;;20.42;12.48;;;19.10;74.70;;;;;;5051974;28;20021;-68
2024/01/31 00:24:28;;;;;;;21.20;11.98;;;19.10;74.60;;;;;;5052701;28;20029;-68
2024/01/31 00:26:53;;;;;;;21.48;10.13;;;19.10;74.90;;;;;;5051403;28;20025;-67
2024/01/31 00:29:19;;;;;;;18.42;10.55;;;19.10;75.10;;;;;;5052617;28;20040;-66
2024/01/31 00:31:45;;;;;;;17.63;10.80;;;19.10;75.00;;;;;;5051727;28;20542;-67
2024/01/31 00:34:11;;;;;;;17.98;10.63;;;19.10;75.20;;;;;;5050903;28;20041;-67
2024/01/31 00:36:36;;;;;;;14.77;10.32;;;19.10;75.20;;;;;;5051086;28;20025;-68
2024/01/31 00:39:02;;;;;;;17.98;11.00;;;19.10;75.30;;;;;;5052323;28;20437;-67
2024/01/31 00:41:28;;;;;;;17.02;10.40;;;19.10;75.10;;;;;;5051577;28;20438;-68
2024/01/31 00:43:53;;;;;;;15.93;10.73;;;19.10;75.30;;;;;;5052501;28;20027;-67
2024/01/31 00:46:19;;;;;;;19.25;10.18;;;19.10;75.10;;;;;;5052246;28;20025;-67
2024/01/31 00:48:44;;;;;;;14.63;10.10;;;19.10;75.20;;;;;;5041517;28;20374;-68
2024/01/31 00:51:11;;;;;;;15.48;9.93;;;19.10;75.60;;;;;;5031518;28;20045;-69
2024/01/31 00:53:37;;;;;;;20.55;10.48;;;19.20;75.50;;;;;;5032207;28;20022;-69
2024/01/31 00:56:03;;;;;;;15.23;9.98;;;19.10;75.50;;;;;;5031929;28;20075;-69
2024/01/31 00:58:29;;;;;;;14.52;9.32;;;19.20;75.40;;;;;;5032229;28;20025;-69
2024/01/31 01:00:54;;;;;;;14.93;8.25;;;19.20;75.60;;;;;;5031341;28;20473;-68
2024/01/31 01:03:20;;;;;;;13.38;8.60;;;19.10;75.70;;;;;;5030888;28;20030;-67
2024/01/31 01:05:46;;;;;;;13.65;8.95;;;19.10;75.60;;;;;;5032217;28;20557;-67
2024/01/31 01:08:11;;;;;;;13.65;8.18;;;19.10;75.80;;;;;;5031097;28;20030;-67
2024/01/31 01:10:37;;;;;;;15.80;9.15;;;19.10;75.80;;;;;;5030960;28;20022;-67
2024/01/31 01:13:02;;;;;;;17.83;9.23;;;19.10;75.60;;;;;;5039892;28;20056;-66
2024/01/31 01:15:28;;;;;;;17.58;9.35;;;19.10;76.30;;;;;;5051540;28;20037;-66
2024/01/31 01:17:53;;;;;;;13.02;7.70;;;19.20;76.10;;;;;;5051903;28;20407;-65
2024/01/31 01:20:19;;;;;;;19.85;8.85;;;19.10;76.00;;;;;;5046942;28;20036;-66
2024/01/31 01:22:46;;;;;;;12.88;7.57;;;19.10;76.00;;;;;;5050360;28;20047;-68
2024/01/31 01:25:12;;;;;;;10.23;7.32;;;19.10;76.10;;;;;;5051578;28;20029;-68
2024/01/31 01:27:38;;;;;;;15.38;7.63;;;19.10;76.10;;;;;;5051515;28;20032;-67
2024/01/31 01:30:04;;;;;;;16.38;8.25;;;19.10;76.00;;;;;;5050826;28;20021;-66
2024/01/31 01:32:29;;;;;;;10.05;6.68;;;19.10;76.00;;;;;;5050459;28;20061;-66
2024/01/31 01:34:55;;;;;;;12.68;7.43;;;19.10;76.20;;;;;;5051307;28;20065;-67
2024/01/31 01:37:21;;;;;;;11.57;7.45;;;19.10;76.20;;;;;;5051322;28;20039;-68
2024/01/31 01:39:47;;;;;;;9.80;6.68;;;19.10;76.10;;;;;;5051125;28;20024;-68
2024/01/31 01:42:13;;;;;;;13.05;6.65;;;19.10;76.10;;;;;;5050615;28;20104;-66
2024/01/31 01:44:44;;;;;;;17.00;8.05;;;19.10;76.10;;;;;;5051249;28;20135;-67
2024/01/31 01:47:10;;;;;;;10.98;6.90;;;19.10;76.10;;;;;;5051255;28;20044;-68
2024/01/31 01:49:36;;;;;;;10.85;7.13;;;19.10;76.10;;;;;;5051048;28;20029;-68
2024/01/31 01:52:03;;;;;;;11.55;6.95;;;19.10;76.10;;;;;;5050401;28;20032;-67
2024/01/31 01:54:30;;;;;;;12.02;6.45;;;19.10;76.10;;;;;;5051333;28;20033;-66
2024/01/31 01:56:56;;;;;;;12.77;6.68;;;19.10;76.10;;;;;;5049970;28;20025;-67
2024/01/31 01:59:22;;;;;;;10.73;6.25;;;19.10;76.10;;;;;;5050927;28;20826;-67
2024/01/31 02:01:48;;;;;;;11.95;6.60;;;19.00;76.00;;;;;;5050764;28;20021;-67
2024/01/31 02:04:16;;;;;;;10.90;6.97;;;19.10;76.10;;;;;;5051235;28;20040;-66
2024/01/31 02:06:42;;;;;;;10.98;6.80;;;19.00;76.10;;;;;;5050944;28;20071;-66
2024/01/31 02:09:08;;;;;;;11.15;6.50;;;19.00;76.10;;;;;;5051111;28;20544;-66
2024/01/31 02:11:35;;;;;;;8.85;5.55;;;19.00;76.10;;;;;;5050273;28;20055;-66
2024/01/31 02:14:01;;;;;;;9.02;5.75;;;19.00;76.20;;;;;;5050811;28;20033;-69
2024/01/31 02:16:26;;;;;;;11.15;6.30;;;19.00;76.20;;;;;;5051003;28;20075;-68
2024/01/31 02:18:52;;;;;;;14.68;7.00;;;19.10;76.20;;;;;;5050983;28;20057;-67
2024/01/31 02:21:19;;;;;;;10.02;6.30;;;19.10;76.70;;;;;;5050081;28;20036;-67
2024/01/31 02:23:44;;;;;;;13.43;5.65;;;19.10;76.40;;;;;;5053770;28;20021;-67
2024/01/31 02:26:10;;;;;;;10.40;6.22;;;19.10;76.40;;;;;;5054901;28;20497;-67
2024/01/31 02:28:36;;;;;;;7.95;5.13;;;19.10;76.30;;;;;;5054965;28;20029;-67
2024/01/31 02:31:02;;;;;;;8.75;6.13;;;19.10;76.40;;;;;;5054114;28;20067;-67
2024/01/31 02:33:28;;;;;;;9.57;6.03;;;19.00;76.30;;;;;;5054633;28;20038;-67
2024/01/31 02:35:54;;;;;;;10.68;6.13;;;19.10;76.40;;;;;;5054681;28;20032;-67
2024/01/31 02:38:19;;;;;;;9.02;5.57;;;19.10;76.60;;;;;;5054698;28;20025;-67
2024/01/31 02:40:45;;;;;;;12.95;6.22;;;19.00;76.50;;;;;;5053895;28;20028;-68
2024/01/31 02:43:10;;;;;;;7.95;5.07;;;19.10;76.60;;;;;;5054471;28;20028;-67
2024/01/31 02:45:36;;;;;;;9.07;4.82;;;19.10;76.60;;;;;;5054629;28;20086;-67
2024/01/31 02:48:03;;;;;;;7.72;4.80;;;19.10;76.80;;;;;;5054452;28;20068;-67
2024/01/31 02:50:30;;;;;;;8.18;5.13;;;19.10;76.80;;;;;;5053606;28;20079;-67
2024/01/31 02:52:55;;;;;;;7.95;5.03;;;19.00;76.90;;;;;;5054535;28;20079;-67
2024/01/31 02:55:21;;;;;;;7.47;5.20;;;19.10;76.90;;;;;;5054246;28;20427;-67
2024/01/31 02:57:47;;;;;;;6.25;4.38;;;19.10;76.80;;;;;;5054270;28;20086;-67
2024/01/31 03:00:13;;;;;;;5.95;4.35;;;19.10;76.90;;;;;;5053414;28;20029;-67
2024/01/31 03:02:42;;;;;;;7.32;4.80;;;19.10;77.00;;;;;;5054077;28;20536;-68
2024/01/31 03:05:08;;;;;;;10.00;5.03;;;19.10;77.00;;;;;;5054151;28;20036;-68
2024/01/31 03:07:33;;;;;;;9.07;5.35;;;19.10;77.30;;;;;;5054115;28;20430;-69
2024/01/31 03:09:59;;;;;;;6.38;4.72;;;19.10;77.20;;;;;;5053761;28;20025;-67
2024/01/31 03:12:25;;;;;;;8.27;4.55;;;19.10;77.30;;;;;;5053979;28;20059;-67
2024/01/31 03:14:50;;;;;;;6.80;4.15;;;19.10;77.00;;;;;;5053968;28;20029;-66
2024/01/31 03:17:16;;;;;;;5.10;3.78;;;19.10;77.10;;;;;;5053837;28;20472;-67
2024/01/31 03:19:42;;;;;;;10.48;3.83;;;19.10;77.30;;;;;;5054036;28;20054;-68
2024/01/31 03:22:09;;;;;;;24.13;4.70;;;19.10;77.00;;;;;;5053317;28;20025;-66
2024/01/31 03:24:34;;;;;;;8.15;4.80;;;19.20;77.20;;;;;;5053974;28;20445;-66
2024/01/31 03:27:00;;;;;;;7.97;4.25;;;19.20;77.10;;;;;;5053808;28;20163;-66
2024/01/31 03:29:26;;;;;;;10.07;4.28;;;19.20;77.30;;;;;;5052471;28;20032;-65
2024/01/31 03:31:51;;;;;;;7.65;4.38;;;19.10;77.40;;;;;;5053054;28;20100;-65
2024/01/31 03:34:17;;;;;;;8.23;4.28;;;19.10;77.20;;;;;;5053476;28;20025;-68
2024/01/31 03:36:43;;;;;;;6.80;4.07;;;19.10;77.30;;;;;;5053756;28;20476;-68
2024/01/31 03:39:09;;;;;;;8.23;3.90;;;19.10;77.30;;;;;;5053554;28;20040;-68
2024/01/31 03:41:35;;;;;;;8.05;4.32;;;19.10;77.40;;;;;;5052685;28;20416;-68
2024/01/31 03:44:00;;;;;;;8.38;4.18;;;19.10;77.40;;;;;;5053413;28;20029;-67
2024/01/31 03:46:26;;;;;;;6.00;3.85;;;19.10;77.20;;;;;;5053405;28;20025;-68
2024/01/31 03:48:52;;;;;;;9.38;3.97;;;19.10;77.20;;;;;;5053333;28;20473;-69
2024/01/31 03:51:21;;;;;;;6.80;3.67;;;19.10;77.30;;;;;;5052680;28;20092;-69
2024/01/31 03:53:48;;;;;;;6.90;3.70;;;19.10;77.40;;;;;;5053297;28;20025;-69
2024/01/31 03:56:14;;;;;;;5.93;3.45;;;19.10;77.20;;;;;;5053190;28;20393;-70
2024/01/31 03:58:40;;;;;;;6.90;3.45;;;19.10;77.20;;;;;;5053185;28;20111;-67
2024/01/31 04:01:06;;;;;;;8.05;3.60;;;19.20;77.20;;;;;;5052381;28;20028;-67
2024/01/31 04:03:32;;;;;;;4.85;3.28;;;19.10;77.00;;;;;;5053051;28;20033;-67
2024/01/31 04:05:58;;;;;;;5.50;3.33;;;19.20;77.40;;;;;;5053180;28;20029;-67
2024/01/31 04:08:24;;;;;;;3.88;2.72;;;19.20;77.20;;;;;;5053155;28;20021;-67
2024/01/31 04:10:49;;;;;;;5.80;3.05;;;19.20;77.20;;;;;;5052173;28;20064;-69
2024/01/31 04:13:15;;;;;;;16.77;4.00;;;19.20;77.30;;;;;;5052695;28;20041;-68
2024/01/31 04:15:41;;;;;;;6.82;3.13;;;19.10;77.50;;;;;;5053180;28;20028;-68
2024/01/31 04:18:07;;;;;;;9.85;3.00;;;19.20;77.50;;;;;;5053176;28;20027;-66
2024/01/31 04:20:34;;;;;;;6.60;3.17;;;19.20;77.40;;;;;;5052082;28;20481;-67
2024/01/31 04:23:00;;;;;;;5.30;2.80;;;19.20;77.70;;;;;;5052650;28;20066;-67
2024/01/31 04:25:26;;;;;;;4.72;3.15;;;19.20;77.50;;;;;;5052801;28;20476;-66
2024/01/31 04:27:51;;;;;;;5.13;2.92;;;19.20;77.40;;;;;;5052688;28;20078;-66
2024/01/31 04:30:18;;;;;;;6.40;3.00;;;19.20;77.50;;;;;;5051783;28;20112;-67
2024/01/31 04:32:44;;;;;;;3.25;2.55;;;19.20;77.40;;;;;;5052757;28;20032;-67
2024/01/31 04:35:10;;;;;;;4.70;2.95;;;19.20;77.50;;;;;;5052720;28;20025;-67
2024/01/31 04:37:35;;;;;;;3.75;2.47;;;19.20;77.50;;;;;;5052667;28;20096;-68
2024/01/31 04:40:01;;;;;;;11.82;3.33;;;19.20;77.50;;;;;;5051829;28;20116;-67
2024/01/31 04:42:27;;;;;;;6.82;2.90;;;19.20;77.40;;;;;;5052509;28;20029;-68
2024/01/31 04:44:52;;;;;;;6.88;3.15;;;19.20;77.70;;;;;;5051786;28;20025;-68
2024/01/31 04:47:18;;;;;;;4.80;2.22;;;19.20;77.60;;;;;;5052255;28;20032;-68
2024/01/31 04:49:43;;;;;;;3.35;2.38;;;19.20;77.40;;;;;;5052355;28;20033;-67
2024/01/31 04:52:10;;;;;;;5.60;2.80;;;19.20;77.50;;;;;;5051845;28;20025;-68
2024/01/31 04:54:39;;;;;;;5.28;2.60;;;19.20;77.40;;;;;;5052270;28;20032;-68
2024/01/31 04:57:05;;;;;;;3.67;2.60;;;19.20;77.60;;;;;;5052320;28;20067;-68
2024/01/31 04:59:32;;;;;;;5.90;2.72;;;19.20;77.50;;;;;;5052077;28;20100;-68
2024/01/31 05:01:57;;;;;;;3.50;2.45;;;19.10;77.60;;;;;;5051465;28;20750;-69
2024/01/31 05:04:24;;;;;;;4.25;2.55;;;19.20;77.60;;;;;;5052199;28;20033;-69
2024/01/31 05:06:49;;;;;;;4.38;2.83;;;19.10;77.60;;;;;;5052347;28;20071;-68
2024/01/31 05:09:15;;;;;;;3.97;3.17;;;19.20;77.50;;;;;;5051980;28;20024;-70
2024/01/31 05:11:41;;;;;;;3.80;2.00;;;19.10;77.50;;;;;;5051246;28;20021;-68
2024/01/31 05:14:07;;;;;;;4.80;2.80;;;19.20;77.50;;;;;;5051488;28;20459;-67
2024/01/31 05:16:32;;;;;;;4.18;2.63;;;19.10;77.50;;;;;;5051972;28;20025;-67
2024/01/31 05:18:58;;;;;;;5.25;2.55;;;19.10;77.50;;;;;;5051796;28;20092;-68
2024/01/31 05:21:23;;;;;;;5.72;2.85;;;19.10;77.50;;;;;;5051136;28;20029;-67
2024/01/31 05:23:49;;;;;;;3.28;1.85;;;19.20;77.60;;;;;;5051822;28;20037;-67
2024/01/31 05:26:14;;;;;;;4.43;2.30;;;19.20;77.50;;;;;;5051614;28;20056;-66
2024/01/31 05:28:42;;;;;;;4.15;2.20;;;19.10;77.40;;;;;;5051625;28;20032;-66
2024/01/31 05:31:07;;;;;;;7.82;2.40;;;19.10;77.40;;;;;;5050963;28;20032;-66
2024/01/31 05:33:33;;;;;;;5.55;2.17;;;19.20;77.80;;;;;;5051684;28;20029;-67
2024/01/31 05:36:00;;;;;;;5.95;2.45;;;19.20;77.80;;;;;;5051775;28;20504;-68
2024/01/31 05:38:26;;;;;;;5.40;2.60;;;19.20;77.80;;;;;;5051762;28;20021;-68
2024/01/31 05:40:52;;;;;;;5.55;2.83;;;19.20;77.80;;;;;;5050921;28;20028;-68
2024/01/31 05:43:18;;;;;;;9.05;2.75;;;19.20;77.90;;;;;;5051175;28;20052;-67
2024/01/31 05:45:43;;;;;;;9.90;2.78;;;19.20;77.90;;;;;;5051580;28;20108;-67
2024/01/31 05:48:09;;;;;;;11.82;2.95;;;19.30;78.00;;;;;;5051499;28;20029;-69
2024/01/31 05:50:35;;;;;;;6.47;3.50;;;19.30;77.50;;;;;;5050643;28;20029;-69
2024/01/31 05:53:01;;;;;;;10.25;3.85;;;19.30;76.50;;;;;;5050897;28;20032;-67
2024/01/31 05:55:26;;;;;;;4.78;3.45;;;19.20;76.10;;;;;;5051013;28;20033;-67
2024/01/31 05:57:52;;;;;;;9.23;4.22;;;19.20;76.00;;;;;;5050879;28;20096;-67
2024/01/31 06:00:18;;;;;;;13.20;3.55;;;19.20;75.90;;;;;;5050212;28;20587;-68
2024/01/31 06:02:43;;;;;;;9.38;3.47;;;19.20;76.20;;;;;;5050877;28;20044;-68
2024/01/31 06:05:09;;;;;;;17.15;4.88;;;19.30;76.70;;;;;;5051145;28;20043;-70
2024/01/31 06:07:34;;;;;;;22.10;5.65;;;19.30;76.70;;;;;;5051038;28;20497;-70
2024/01/31 06:10:00;;;;;;;13.43;4.28;;;19.30;77.10;;;;;;5050446;28;20542;-69
2024/01/31 06:12:26;;;;;;;9.38;3.78;;;19.30;76.30;;;;;;5050508;28;20048;-69
2024/01/31 06:14:51;;;;;;;10.25;4.50;;;19.30;76.10;;;;;;5050715;28;20489;-70
2024/01/31 06:17:17;;;;;;;14.25;3.45;;;19.30;76.00;;;;;;5049502;28;20021;-69
2024/01/31 06:19:43;;;;;;;26.15;7.63;;;19.30;75.90;;;;;;5050797;28;20025;-70
2024/01/31 06:22:09;;;;;;;33.33;23.55;;;19.30;78.60;;;;;;5050234;28;20507;-70
2024/01/31 06:24:36;;;;;;;37.70;21.88;;;18.00;54.90;;;;;;5051097;28;20029;-70
2024/01/31 06:27:01;;;;;;;37.63;23.88;;;16.00;51.70;;;;;;5050648;28;20508;-71
2024/01/31 06:29:27;;;;;;;28.20;21.00;;;14.80;54.40;;;;;;5050753;28;20063;-67
2024/01/31 06:31:56;;;;;;;33.13;22.38;;;14.40;57.80;;;;;;5050157;28;20021;-69
2024/01/31 06:34:22;;;;;;;33.78;22.60;;;14.30;57.80;;;;;;5050533;28;20036;-69
2024/01/31 06:36:48;;;;;;;33.70;22.80;;;14.00;55.90;;;;;;5050899;28;20021;-69
2024/01/31 06:39:13;;;;;;;39.58;23.67;;;13.50;55.00;;;;;;5050619;28;20028;-69
2024/01/31 06:41:39;;;;;;;38.00;23.60;;;13.00;55.10;;;;;;5049838;28;20028;-69
2024/01/31 06:44:04;;;;;;;36.47;22.33;;;12.60;55.20;;;;;;5050649;28;20083;-69
2024/01/31 06:46:30;;;;;;;62.15;25.48;;;12.20;55.90;;;;;;5050723;28;20384;-69
2024/01/31 06:48:57;;;;;;;48.60;22.05;;;12.00;56.20;;;;;;5050753;28;20025;-69
2024/01/31 06:51:22;;;;;;;39.33;21.77;;;11.70;57.00;;;;;;5050119;28;20017;-68
2024/01/31 06:53:48;;;;;;;30.23;14.70;;;11.60;58.20;;;;;;5050440;28;20021;-68
2024/01/31 06:56:17;;;;;;;18.90;9.88;;;12.30;67.70;;;;;;5050254;28;20119;-68
2024/01/31 06:58:49;;;;;;;23.23;10.07;;;13.10;75.40;;;;;;5050615;28;20025;-69
2024/01/31 07:01:15;;;;;;;24.42;9.65;;;13.80;76.90;;;;;;5049923;28;20017;-69
2024/01/31 07:03:41;;;;;;;20.90;10.98;;;;;;;;;;5052829;28;20071;-66
2024/01/31 07:06:07;;;;;;;19.40;10.80;;;;;;;;;;5052868;28;20051;-69
2024/01/31 07:08:33;;;;;;;24.30;11.25;;;;;;;;;;5056537;28;20481;-69
2024/01/31 07:10:59;;;;;;;19.80;12.10;;;;;;;;;;5057994;28;20028;-67
2024/01/31 07:13:25;;;;;;;20.90;10.85;;;15.80;72.90;;;;;;5056523;28;20029;-68
2024/01/31 07:15:50;;;;;;;23.67;11.38;;;15.90;72.60;;;;;;5056418;28;20108;-68
2024/01/31 07:18:17;;;;;;;18.80;10.27;;;16.10;71.90;;;;;;5055930;28;20028;-68
2024/01/31 07:20:42;;;;;;;16.83;10.63;;;16.30;71.40;;;;;;5053862;28;20029;-68
2024/01/31 07:23:08;;;;;;;18.80;10.27;;;16.40;71.00;;;;;;5053647;28;20017;-68
2024/01/31 07:25:33;;;;;;;18.13;10.60;;;16.50;70.70;;;;;;5054077;28;20052;-68
2024/01/31 07:27:59;;;;;;;14.73;8.98;;;16.60;70.50;;;;;;5054646;28;20068;-68
2024/01/31 07:30:25;;;;;;;16.42;9.32;;;16.70;70.20;;;;;;5054482;28;20033;-68
2024/01/31 07:32:50;;;;;;;16.73;8.95;;;16.80;70.10;;;;;;5052405;28;20029;-68
2024/01/31 07:35:16;;;;;;;15.57;8.82;;;16.90;69.90;;;;;;5054728;28;20036;-68
2024/01/31 07:37:41;;;;;;;16.33;8.50;;;17.00;69.80;;;;;;5053504;28;20611;-68
2024/01/31 07:40:09;;;;;;;13.25;8.27;;;17.00;69.60;;;;;;5052723;28;20013;-68
2024/01/31 07:42:36;;;;;;;9.70;6.85;;;17.00;69.50;;;;;;5053591;28;20752;-68
2024/01/31 07:45:02;;;;;;;17.70;7.85;;;17.20;72.70;;;;;;5053463;28;20033;-69
2024/01/31 07:47:28;;;;;;;21.05;8.90;;;17.30;75.00;;;;;;5053142;28;20496;-67
2024/01/31 07:49:54;;;;;;;14.18;8.02;;;17.40;75.30;;;;;;5053112;28;20029;-68
2024/01/31 07:52:19;;;;;;;20.25;7.55;;;17.50;75.50;;;;;;5052462;28;20033;-67
2024/01/31 07:54:45;;;;;;;21.50;8.18;;;17.50;75.50;;;;;;5052931;28;20395;-67
2024/01/31 07:57:10;;;;;;;17.00;6.93;;;17.60;75.50;;;;;;5052941;28;20056;-66
2024/01/31 07:59:36;;;;;;;19.23;7.75;;;17.70;75.60;;;;;;5053035;28;20032;-68
2024/01/31 08:02:02;;;;;;;20.25;7.45;;;17.70;75.50;;;;;;5052898;28;20029;-66
2024/01/31 08:04:27;;;;;;;35.10;10.05;;;17.80;75.40;;;;;;5051928;28;20031;-66
2024/01/31 08:06:54;;;;;;;48.55;11.45;;;17.90;75.40;;;;;;5052828;28;20029;-66
2024/01/31 08:09:22;;;;;;;27.75;9.52;;;17.90;75.20;;;;;;5053022;28;20513;-64
2024/01/31 08:11:48;;;;;;;29.42;9.05;;;18.00;75.10;;;;;;5051694;28;20451;-66
2024/01/31 08:14:13;;;;;;;31.13;8.95;;;18.00;74.90;;;;;;5051731;28;20025;-65
2024/01/31 08:16:39;;;;;;;17.15;8.15;;;18.00;74.70;;;;;;5051575;28;20044;-65
2024/01/31 08:19:05;;;;;;;25.75;8.15;;;18.00;74.60;;;;;;5052319;28;20439;-66
2024/01/31 08:21:32;;;;;;;24.02;6.80;;;18.10;74.50;;;;;;5049499;28;20025;-67
2024/01/31 08:23:58;;;;;;;21.90;7.38;;;18.10;74.40;;;;;;5052264;28;20017;-65
2024/01/31 08:26:24;;;;;;;31.00;9.60;;;18.10;74.30;;;;;;5052588;28;20021;-68
2024/01/31 08:28:50;;;;;;;23.73;8.98;;;18.10;74.70;;;;;;5052420;28;20032;-68
2024/01/31 08:31:15;;;;;;;33.55;9.18;;;18.20;74.90;;;;;;5051189;28;20133;-67
2024/01/31 08:33:41;;;;;;;26.20;9.20;;;18.20;74.70;;;;;;5051119;28;20038;-70
2024/01/31 08:36:08;;;;;;;27.42;8.57;;;18.20;74.60;;;;;;5049493;28;20035;-69
2024/01/31 08:38:34;;;;;;;31.00;8.90;;;18.30;74.20;;;;;;5049109;28;20384;-70
2024/01/31 08:41:00;;;;;;;28.17;8.85;;;18.20;74.00;;;;;;5049851;28;20025;-70
2024/01/31 08:43:25;;;;;;;24.77;8.32;;;18.30;73.80;;;;;;5050273;28;20028;-69
2024/01/31 08:45:53;;;;;;;36.03;8.85;;;18.30;73.70;;;;;;5050505;28;20040;-70
2024/01/31 08:48:19;;;;;;;17.67;7.63;;;18.30;73.70;;;;;;5050576;28;20036;-69
2024/01/31 08:50:45;;;;;;;22.58;7.45;;;18.30;73.50;;;;;;5049904;28;20029;-69
2024/01/31 08:53:10;;;;;;;23.48;7.65;;;18.30;73.40;;;;;;5051167;28;20381;-69
2024/01/31 08:55:36;;;;;;;20.25;7.47;;;18.30;73.40;;;;;;5051369;28;20453;-70
2024/01/31 08:58:02;;;;;;;17.48;6.80;;;18.30;73.30;;;;;;5050474;28;20021;-70
2024/01/31 09:00:29;;;;;;;16.02;6.85;;;18.30;73.20;;;;;;5050935;28;20021;-70
2024/01/31 09:02:55;;;;;;;16.65;7.15;;;18.30;73.10;;;;;;5051413;28;20041;-70
2024/01/31 09:05:21;;;;;;;15.60;6.90;;;18.30;73.10;;;;;;5051579;28;20029;-70
2024/01/31 09:07:46;;;;;;;18.98;6.95;;;18.40;73.10;;;;;;5051891;28;20086;-70
2024/01/31 09:10:12;;;;;;;14.73;6.72;;;18.40;73.00;;;;;;5038060;28;20103;-70
2024/01/31 09:12:38;;;;;;;19.42;7.18;;;18.40;73.00;;;;;;5031403;28;20022;-71
2024/01/31 09:15:04;;;;;;;19.88;6.63;;;18.40;72.90;;;;;;5030613;28;20026;-70
2024/01/31 09:17:29;;;;;;;12.43;6.00;;;18.40;72.90;;;;;;5031350;28;20036;-70
2024/01/31 09:19:55;;;;;;;15.00;6.45;;;18.40;72.80;;;;;;5031645;28;20089;-70
2024/01/31 09:22:20;;;;;;;13.25;6.25;;;18.40;72.70;;;;;;5030973;28;20489;-70
2024/01/31 09:24:46;;;;;;;13.25;5.57;;;18.30;72.60;;;;;;5031582;28;20543;-72
2024/01/31 09:27:11;;;;;;;13.00;6.20;;;18.40;72.50;;;;;;5031666;28;20081;-70
2024/01/31 09:29:37;;;;;;;11.90;5.53;;;18.30;72.50;;;;;;5031763;28;20030;-70
2024/01/31 09:32:03;;;;;;;12.70;5.85;;;18.30;72.50;;;;;;5030578;28;20061;-70
2024/01/31 09:34:29;;;;;;;14.48;5.72;;;18.30;72.40;;;;;;5031367;28;20029;-70
2024/01/31 09:36:55;;;;;;;11.02;5.25;;;18.30;72.40;;;;;;5031395;28;20389;-70
2024/01/31 09:39:20;;;;;;;11.05;4.95;;;18.30;72.40;;;;;;5031275;28;20051;-70
2024/01/31 09:41:48;;;;;;;11.02;5.05;;;18.30;72.30;;;;;;5030474;28;20047;-67
2024/01/31 09:44:16;;;;;;;12.23;5.78;;;18.30;72.40;;;;;;5031470;28;20421;-70
2024/01/31 09:46:42;;;;;;;13.18;5.80;;;18.30;72.30;;;;;;5031045;28;20041;-70
2024/01/31 09:49:07;;;;;;;12.60;5.32;;;18.30;72.30;;;;;;5030411;28;20036;-70
2024/01/31 09:51:33;;;;;;;10.50;5.00;;;18.30;72.30;;;;;;5030996;28;20026;-69
2024/01/31 09:54:00;;;;;;;11.85;4.70;;;18.30;72.20;;;;;;5031123;28;20535;-69
2024/01/31 09:56:31;;;;;;;11.73;4.97;;;18.30;72.20;;;;;;5031073;28;20029;-70
2024/01/31 09:59:00;;;;;;;11.07;5.15;;;18.30;72.20;;;;;;5031080;28;20028;-71
2024/01/31 10:01:29;;;;;;;9.30;5.38;;;18.20;72.20;;;;;;5030850;28;20467;-70
2024/01/31 10:03:57;;;;;;;11.57;4.53;;;18.30;72.20;;;;;;5030932;28;20025;-67
2024/01/31 10:06:24;;;;;;;10.13;4.13;;;18.30;72.20;;;;;;5031217;28;20021;-70
2024/01/31 10:08:50;;;;;;;7.07;4.07;;;18.30;72.10;;;;;;5031066;28;20030;-70
2024/01/31 10:11:16;;;;;;;7.28;4.30;;;18.30;72.20;;;;;;5030376;28;20025;-70
2024/01/31 10:13:41;;;;;;;9.23;5.18;;;18.30;72.10;;;;;;5031025;28;20026;-69
2024/01/31 10:16:07;;;;;;;8.57;3.88;;;18.20;72.10;;;;;;5030860;28;20026;-70
2024/01/31 10:18:32;;;;;;;7.18;4.00;;;18.30;72.10;;;;;;5031063;28;20029;-70
2024/01/31 10:20:58;;;;;;;9.38;5.07;;;18.30;72.10;;;;;;5030209;28;20022;-70
2024/01/31 10:23:24;;;;;;;10.55;4.47;;;18.30;72.00;;;;;;5028779;28;20018;-69
2024/01/31 10:25:50;;;;;;;8.20;4.32;;;18.30;72.00;;;;;;5030997;28;20029;-70
2024/01/31 10:28:20;;;;;;;10.13;4.60;;;18.30;72.00;;;;;;5031239;28;20450;-71
2024/01/31 10:30:49;;;;;;;10.00;4.57;;;18.30;72.00;;;;;;5030305;28;20565;-71
2024/01/31 10:33:15;;;;;;;7.55;4.18;;;18.30;72.00;;;;;;5030975;28;20030;-71
2024/01/31 10:35:47;;;;;;;7.65;4.05;;;18.30;72.00;;;;;;5030962;28;20044;-70
2024/01/31 10:38:13;;;;;;;6.80;4.22;;;18.30;72.00;;;;;;5031275;28;20400;-71
2024/01/31 10:40:40;;;;;;;7.80;3.40;;;18.30;72.00;;;;;;5030406;28;20026;-71
2024/01/31 10:43:09;;;;;;;10.05;4.00;;;18.20;72.00;;;;;;5030949;28;20033;-70
2024/01/31 10:45:35;;;;;;;6.93;4.25;;;18.30;72.00;;;;;;5034677;28;20026;-71
2024/01/31 10:48:02;;;;;;;6.40;4.03;;;18.30;72.00;;;;;;5034526;28;20033;-71
2024/01/31 10:50:29;;;;;;;8.18;4.05;;;18.30;72.00;;;;;;5033747;28;20025;-70
2024/01/31 10:52:55;;;;;;;8.52;3.90;;;18.30;71.90;;;;;;5034437;28;20029;-71
2024/01/31 10:55:22;;;;;;;9.35;3.97;;;18.30;71.90;;;;;;5034548;28;20076;-71
2024/01/31 10:57:48;;;;;;;5.53;3.78;;;18.30;71.90;;;;;;5033047;28;20032;-70
2024/01/31 11:00:25;;;;;;;6.85;3.80;;;18.30;71.90;;;;;;5033562;28;20066;-71
2024/01/31 11:02:51;;;;;;;8.38;3.70;;;18.30;71.90;;;;;;5033979;28;20458;-71
2024/01/31 11:05:17;;;;;;;7.22;3.10;;;18.30;71.90;;;;;;5032999;28;20152;-72
2024/01/31 11:07:46;;;;;;;5.80;3.10;;;18.30;71.90;;;;;;5034174;28;20026;-71
2024/01/31 11:10:23;;;;;;;6.55;3.00;;;18.30;71.90;;;;;;5033588;28;20168;-70
2024/01/31 11:13:04;;;;;;;5.07;3.35;;;18.30;71.90;;;;;;5034187;28;20454;-71
2024/01/31 11:15:30;;;;;;;7.00;3.72;;;18.30;71.90;;;;;;5034066;28;20053;-70
2024/01/31 11:18:10;;;;;;;6.47;3.38;;;18.30;71.90;;;;;;5034117;28;20013;-71
2024/01/31 11:20:38;;;;;;;6.78;3.20;;;18.30;71.80;;;;;;5033543;28;20032;-71
2024/01/31 11:23:05;;;;;;;7.07;3.55;;;18.30;71.90;;;;;;5035958;28;20026;-70
2024/01/31 11:25:36;;;;;;;7.40;3.67;;;18.20;71.80;;;;;;5035562;28;20025;-71
2024/01/31 11:28:04;;;;;;;5.55;3.30;;;18.30;71.90;;;;;;5034371;28;20040;-71
2024/01/31 11:30:31;;;;;;;7.35;3.40;;;18.30;71.80;;;;;;5033599;28;20029;-72
2024/01/31 11:32:57;;;;;;;6.32;3.42;;;18.30;71.80;;;;;;5034212;28;20033;-71
2024/01/31 11:35:25;;;;;;;4.45;3.00;;;18.30;71.80;;;;;;5034452;28;20048;-70
2024/01/31 11:37:51;;;;;;;5.25;3.53;;;18.30;71.80;;;;;;5033760;28;20048;-70
2024/01/31 11:40:19;;;;;;;5.82;3.10;;;18.30;71.80;;;;;;5032969;28;20032;-70
2024/01/31 11:42:45;;;;;;;6.63;3.67;;;18.20;71.80;;;;;;5033629;28;20022;-70
2024/01/31 11:45:11;;;;;;;7.45;3.60;;;18.30;71.80;;;;;;5033408;28;20351;-70
2024/01/31 11:47:39;;;;;;;4.85;3.10;;;18.30;71.80;;;;;;5033442;28;20040;-69
2024/01/31 11:50:05;;;;;;;5.05;2.85;;;18.30;71.80;;;;;;5032751;28;20485;-70
2024/01/31 11:52:31;;;;;;;7.05;2.92;;;18.30;71.80;;;;;;5033214;28;20021;-70
2024/01/31 11:54:57;;;;;;;5.47;3.17;;;18.30;71.80;;;;;;5033131;28;20033;-70
2024/01/31 11:57:22;;;;;;;4.45;3.15;;;18.30;71.80;;;;;;5033306;28;20104;-70
2024/01/31 11:59:50;;;;;;;5.90;3.35;;;18.30;71.80;;;;;;5033052;28;20394;-70
2024/01/31 12:02:17;;;;;;;4.43;2.42;;;18.30;71.80;;;;;;5032748;28;20036;-69
2024/01/31 12:04:51;;;;;;;4.35;3.10;;;18.30;71.80;;;;;;5033462;28;20421;-70
2024/01/31 12:07:16;;;;;;;6.70;3.70;;;18.30;71.80;;;;;;5033177;28;20018;-69
2024/01/31 12:09:42;;;;;;;5.38;2.80;;;18.30;71.80;;;;;;5032912;28;20674;-70
2024/01/31 12:12:08;;;;;;;6.38;2.67;;;18.30;71.80;;;;;;5032368;28;20080;-70
2024/01/31 12:14:34;;;;;;;5.68;2.65;;;18.30;71.80;;;;;;5032874;28;20099;-69
2024/01/31 12:17:00;;;;;;;5.05;2.90;;;18.30;71.70;;;;;;5033035;28;20030;-70
2024/01/31 12:19:29;;;;;;;4.15;2.70;;;18.20;71.70;;;;;;5032782;28;20476;-70
2024/01/31 12:21:55;;;;;;;3.85;2.40;;;18.20;71.70;;;;;;5032071;28;20026;-70
2024/01/31 12:24:21;;;;;;;4.80;2.83;;;18.30;71.80;;;;;;5032847;28;20021;-70
2024/01/31 12:26:46;;;;;;;4.22;2.75;;;18.30;71.70;;;;;;5032954;28;20074;-70
2024/01/31 12:29:12;;;;;;;6.03;2.90;;;18.30;71.70;;;;;;5032930;28;20113;-70
2024/01/31 12:31:37;;;;;;;4.60;2.40;;;18.30;71.70;;;;;;5032361;28;20021;-69
2024/01/31 12:34:03;;;;;;;3.90;2.30;;;18.30;71.70;;;;;;5032647;28;20017;-71